createdAt,value
2019-05-09T05:00:19.033Z,91.30
2019-05-09T05:02:50.624Z,91.20
2019-05-09T05:05:20.592Z,91.00
2019-05-09T05:07:50.551Z,90.90
2019-05-09T05:10:20.542Z,90.60
2019-05-09T05:12:50.493Z,90.60
2019-05-09T05:15:20.700Z,90.40
2019-05-09T05:17:50.747Z,90.20
2019-05-09T05:20:22.367Z,90.10
2019-05-09T05:22:53.962Z,88.90
2019-05-09T05:25:24.053Z,89.80
2019-05-09T05:27:54.011Z,89.50
2019-05-09T05:30:23.989Z,89.30
2019-05-09T05:32:57.663Z,89.50
2019-05-09T05:35:41.131Z,89.10
2019-05-09T05:38:11.118Z,88.00
2019-05-09T05:40:45.303Z,87.90
2019-05-09T05:43:12.866Z,87.60
2019-05-09T05:45:44.457Z,87.10
2019-05-09T05:48:22.000Z,86.70
2019-05-09T05:50:51.956Z,85.40
2019-05-09T05:53:21.948Z,84.20
2019-05-09T05:55:52.824Z,85.10
2019-05-09T05:58:22.998Z,85.50
2019-05-09T06:00:52.957Z,85.80
2019-05-09T06:03:22.968Z,84.50
2019-05-09T06:05:52.932Z,84.40
2019-05-09T06:08:23.982Z,82.90
2019-05-09T06:10:53.986Z,83.70
2019-05-09T06:13:23.941Z,84.00
2019-05-09T06:15:53.911Z,83.40
2019-05-09T06:18:23.882Z,83.30
2019-05-09T06:20:53.832Z,83.10
2019-05-09T06:23:23.810Z,83.60
2019-05-09T06:25:53.785Z,83.90
2019-05-09T06:28:24.820Z,83.60
2019-05-09T06:30:54.819Z,83.20
2019-05-09T06:33:24.776Z,82.80
2019-05-09T06:35:54.757Z,83.30
2019-05-09T06:38:24.754Z,83.30
2019-05-09T06:40:54.686Z,83.60
2019-05-09T06:43:28.837Z,83.50
2019-05-09T06:46:02.621Z,83.20
2019-05-09T06:48:32.850Z,83.10
2019-05-09T06:51:02.813Z,83.20
2019-05-09T06:53:32.818Z,82.90
2019-05-09T06:56:02.769Z,82.50
2019-05-09T06:58:34.483Z,82.60
2019-05-09T07:01:24.221Z,82.70
2019-05-09T07:03:58.848Z,82.30
2019-05-09T07:06:33.425Z,83.00
2019-05-09T07:09:17.334Z,82.90
2019-05-09T07:11:48.595Z,82.50
2019-05-09T07:14:33.454Z,82.50
2019-05-09T07:17:03.114Z,82.20
2019-05-09T07:19:33.093Z,81.60
2019-05-09T07:22:10.436Z,81.50
2019-05-09T07:25:05.802Z,80.00
2019-05-09T07:27:34.700Z,80.20
2019-05-09T07:30:14.884Z,80.00
2019-05-09T07:32:48.526Z,78.50
2019-05-09T07:35:18.715Z,79.30
2019-05-09T07:37:48.925Z,79.00
2019-05-09T07:40:19.100Z,78.70
2019-05-09T07:42:49.124Z,77.00
2019-05-09T07:45:19.129Z,77.20
2019-05-09T07:47:49.089Z,78.10
2019-05-09T07:50:19.324Z,76.20
2019-05-09T07:52:49.273Z,75.60
2019-05-09T07:55:19.381Z,75.90
2019-05-09T07:57:55.184Z,75.60
2019-05-09T08:00:34.772Z,75.10
2019-05-09T08:03:04.862Z,74.40
2019-05-09T08:05:34.962Z,73.30
2019-05-09T08:08:08.147Z,71.60
2019-05-09T08:10:38.610Z,71.50
2019-05-09T08:13:11.842Z,70.70
2019-05-09T08:15:40.258Z,71.10
2019-05-09T08:18:10.215Z,72.10
2019-05-09T08:20:40.758Z,72.10
2019-05-09T08:23:10.869Z,71.50
2019-05-09T08:25:40.847Z,71.20
2019-05-09T08:28:10.915Z,70.90
2019-05-09T08:30:40.837Z,71.20
2019-05-09T08:33:10.824Z,69.80
2019-05-09T08:35:40.893Z,69.40
2019-05-09T08:38:10.876Z,69.20
2019-05-09T08:40:40.826Z,68.70
2019-05-09T08:43:10.808Z,69.10
2019-05-09T08:45:40.763Z,69.20
2019-05-09T08:48:10.765Z,68.70
2019-05-09T08:50:42.399Z,68.40
2019-05-09T08:53:12.359Z,68.80
2019-05-09T08:55:42.348Z,69.00
2019-05-09T08:58:12.323Z,69.60
2019-05-09T09:00:42.318Z,69.30
2019-05-09T09:03:12.275Z,69.80
2019-05-09T09:05:43.370Z,70.10
2019-05-09T09:08:13.542Z,69.00
2019-05-09T09:10:43.497Z,68.30
2019-05-09T09:13:13.493Z,67.40
2019-05-09T09:16:08.386Z,67.70
2019-05-09T09:18:17.685Z,68.00
2019-05-09T09:20:48.547Z,67.10
2019-05-09T09:23:18.346Z,66.20
2019-05-09T09:25:48.868Z,67.60
2019-05-09T09:28:18.941Z,67.00
2019-05-09T09:30:48.910Z,67.60
2019-05-09T09:33:18.865Z,66.40
2019-05-09T09:35:49.192Z,67.60
2019-05-09T09:38:19.128Z,66.10
2019-05-09T09:40:49.126Z,67.10
2019-05-09T09:43:19.079Z,64.60
2019-05-09T09:46:05.106Z,65.50
2019-05-09T09:48:20.639Z,65.40
2019-05-09T09:50:51.752Z,64.50
2019-05-09T09:53:21.884Z,64.60
2019-05-09T09:55:51.909Z,63.70
2019-05-09T09:58:21.843Z,64.70
2019-05-09T10:04:40.462Z,61.20
2019-05-09T10:07:10.429Z,60.40
2019-05-09T10:09:40.387Z,58.00
2019-05-09T10:12:10.401Z,58.10
2019-05-09T10:14:41.946Z,58.60
2019-05-09T10:17:29.889Z,59.70
2019-05-09T10:20:01.477Z,58.60
2019-05-09T10:22:33.595Z,59.50
2019-05-09T10:25:03.907Z,60.40
2019-05-09T10:27:33.881Z,60.60
2019-05-09T10:30:08.938Z,59.80
2019-05-09T10:32:38.515Z,59.70
2019-05-09T10:35:08.941Z,61.00
2019-05-09T10:37:39.417Z,63.10
2019-05-09T10:40:12.582Z,62.70
2019-05-09T10:42:48.360Z,62.90
2019-05-09T10:45:26.200Z,61.80
2019-05-09T10:47:57.642Z,61.70
2019-05-09T10:50:33.882Z,63.80
2019-05-09T10:52:59.455Z,63.50
2019-05-09T10:55:29.405Z,64.50
2019-05-09T10:58:02.255Z,63.70
2019-05-09T11:00:31.271Z,65.40
2019-05-09T11:03:01.232Z,65.60
2019-05-09T11:05:32.278Z,66.60
2019-05-09T11:08:02.338Z,66.60
2019-05-09T11:10:47.362Z,66.90
2019-05-09T11:13:18.191Z,66.40
2019-05-09T11:15:48.225Z,66.70
2019-05-09T11:18:18.633Z,65.50
2019-05-09T11:20:48.741Z,66.60
2019-05-09T11:23:19.431Z,66.60
2019-05-09T11:25:49.611Z,66.40
2019-05-09T11:28:19.573Z,67.00
2019-05-09T11:30:49.529Z,67.30
2019-05-09T11:33:19.481Z,67.10
2019-05-09T11:35:49.470Z,67.20
2019-05-09T11:38:33.213Z,67.30
2019-05-09T11:40:51.096Z,67.50
2019-05-09T11:43:21.079Z,67.60
2019-05-09T11:45:51.026Z,68.10
2019-05-09T11:48:21.000Z,69.00
2019-05-09T11:50:52.105Z,68.40
2019-05-09T11:53:22.326Z,68.10
2019-05-09T11:55:54.240Z,66.50
2019-05-09T11:58:24.333Z,56.30
2019-05-09T12:00:54.286Z,53.40
2019-05-09T12:03:24.286Z,51.30
2019-05-09T12:05:54.421Z,52.00
2019-05-09T12:08:26.324Z,50.30
2019-05-09T12:10:57.893Z,49.80
2019-05-09T12:13:28.034Z,46.60
2019-05-09T12:15:58.517Z,45.80
2019-05-09T12:18:28.712Z,45.60
2019-05-09T12:20:59.123Z,49.00
2019-05-09T12:23:29.260Z,49.90
2019-05-09T12:25:59.356Z,49.50
2019-05-09T12:28:29.438Z,49.30
2019-05-09T12:30:59.572Z,48.00
2019-05-09T12:33:33.051Z,49.00
2019-05-09T12:36:01.278Z,48.70
2019-05-09T12:38:31.460Z,48.70
2019-05-09T12:41:01.574Z,49.80
2019-05-09T12:43:31.929Z,52.30
2019-05-09T12:46:02.182Z,52.00
2019-05-09T12:48:32.414Z,52.40
2019-05-09T12:51:02.420Z,54.50
2019-05-09T12:53:32.399Z,55.50
2019-05-09T12:56:02.532Z,56.50
2019-05-09T12:58:33.204Z,57.20
2019-05-09T13:01:03.223Z,57.20
2019-05-09T13:03:33.173Z,58.60
2019-05-09T13:06:03.313Z,61.20
2019-05-09T13:08:33.473Z,63.40
2019-05-09T13:11:03.800Z,65.10
2019-05-09T13:13:35.091Z,66.60
2019-05-09T13:16:14.271Z,68.30
2019-05-09T13:18:54.898Z,69.80
2019-05-09T13:21:28.628Z,72.20
2019-05-09T13:23:58.895Z,73.10
2019-05-09T13:26:29.013Z,74.50
2019-05-09T13:29:01.045Z,73.50
2019-05-09T13:31:34.562Z,74.80
2019-05-09T13:34:02.714Z,75.70
2019-05-09T13:36:32.749Z,73.30
2019-05-09T13:39:53.574Z,74.10
2019-05-09T13:42:23.760Z,75.50
2019-05-09T13:44:53.723Z,74.90
2019-05-09T13:47:23.867Z,75.70
2019-05-09T13:49:55.941Z,75.20
2019-05-09T13:52:27.428Z,77.60
2019-05-09T13:54:58.636Z,76.00
2019-05-09T13:57:29.079Z,76.00
2019-05-09T13:59:59.745Z,76.30
2019-05-09T14:02:29.869Z,76.10
2019-05-09T14:04:59.905Z,75.10
2019-05-09T14:07:29.940Z,74.20
2019-05-09T14:09:59.896Z,74.10
2019-05-09T14:12:30.132Z,71.40
2019-05-09T14:15:00.283Z,69.80
2019-05-09T14:17:44.841Z,67.30
2019-05-09T14:20:02.678Z,67.20
2019-05-09T14:22:32.778Z,65.40
2019-05-09T14:25:07.323Z,64.00
2019-05-09T14:27:37.582Z,59.70
2019-05-09T14:30:08.314Z,59.60
2019-05-09T14:32:40.161Z,60.20
2019-05-09T14:35:10.752Z,60.30
2019-05-09T14:37:40.888Z,61.10
2019-05-09T14:40:11.584Z,62.40
2019-05-09T14:42:42.133Z,64.60
2019-05-09T14:45:12.459Z,67.90
2019-05-09T14:47:42.882Z,68.70
2019-05-09T14:50:13.819Z,69.30
2019-05-09T14:52:44.245Z,70.30
2019-05-09T14:55:14.754Z,72.50
2019-05-09T14:57:44.808Z,72.90
2019-05-09T15:00:15.266Z,70.90
2019-05-09T15:02:45.843Z,71.10
2019-05-09T15:05:18.881Z,76.80
2019-05-09T15:07:49.562Z,81.10
2019-05-09T15:10:20.080Z,77.00
2019-05-09T15:12:50.724Z,77.90
2019-05-09T15:15:21.354Z,80.20
2019-05-09T15:17:51.988Z,82.40
2019-05-09T15:20:22.714Z,83.30
2019-05-09T15:22:54.779Z,83.30
2019-05-09T15:25:27.693Z,82.00
2019-05-09T15:27:58.081Z,81.60
2019-05-09T15:30:28.894Z,81.80
2019-05-09T15:32:59.449Z,81.20
2019-05-09T15:35:32.237Z,80.20
2019-05-09T15:38:02.921Z,79.30
2019-05-09T15:40:33.718Z,80.10
2019-05-09T15:43:04.251Z,73.60
2019-05-09T15:45:36.700Z,70.30
2019-05-09T15:48:09.582Z,68.30
2019-05-09T15:50:41.649Z,71.20
2019-05-09T15:53:14.784Z,68.90
2019-05-09T15:55:47.884Z,68.70
2019-05-09T15:58:19.112Z,68.70
2019-05-09T16:00:49.955Z,67.50
2019-05-09T16:03:20.739Z,67.30
2019-05-09T16:05:52.597Z,67.40
2019-05-09T16:08:28.568Z,68.00
2019-05-09T16:10:58.365Z,66.80
2019-05-09T16:13:30.227Z,65.10
2019-05-09T16:16:01.467Z,63.30
2019-05-09T16:18:32.099Z,65.90
2019-05-09T16:21:02.730Z,66.60
2019-05-09T16:23:33.464Z,66.10
2019-05-09T16:26:07.297Z,67.10
2019-05-09T16:28:39.433Z,67.30
2019-05-09T16:31:11.295Z,68.30
2019-05-09T16:33:43.083Z,68.60
2019-05-09T16:36:13.785Z,69.00
2019-05-09T16:38:48.438Z,69.20
2019-05-09T16:41:18.529Z,69.40
2019-05-09T16:43:49.358Z,68.30
2019-05-09T16:46:20.019Z,68.90
2019-05-09T16:48:51.643Z,70.00
2019-05-09T16:51:24.344Z,67.90
2019-05-09T16:53:58.405Z,67.30
2019-05-09T16:56:29.417Z,68.30
2019-05-09T16:59:00.216Z,69.00
2019-05-09T17:01:32.887Z,70.40
2019-05-09T17:04:03.826Z,70.30
2019-05-09T17:06:34.456Z,72.30
2019-05-09T17:09:08.431Z,71.90
2019-05-09T17:11:39.332Z,71.40
2019-05-09T17:14:14.093Z,69.70
2019-05-09T17:16:48.103Z,71.10
2019-05-09T17:19:20.528Z,73.20
2019-05-09T17:21:58.367Z,74.40
2019-05-09T17:24:29.926Z,74.70
2019-05-09T17:27:01.822Z,75.40
2019-05-09T17:29:34.623Z,76.60
2019-05-09T17:32:07.819Z,77.80
2019-05-09T17:34:42.000Z,79.10
2019-05-09T17:37:12.229Z,80.10
2019-05-09T17:39:44.178Z,81.10
2019-05-09T17:42:15.029Z,80.40
2019-05-09T17:44:48.820Z,79.60
2019-05-09T17:47:20.484Z,80.50
2019-05-09T17:49:51.221Z,78.00
2019-05-09T17:52:23.484Z,78.70
2019-05-09T17:54:58.964Z,79.40
2019-05-09T17:57:29.866Z,82.00
2019-05-09T18:00:03.725Z,81.90
2019-05-09T18:02:35.689Z,82.60
2019-05-09T18:05:07.848Z,82.70
2019-05-09T18:07:38.489Z,82.20
2019-05-09T18:10:09.540Z,81.30
2019-05-09T18:12:41.644Z,81.70
2019-05-09T18:15:13.243Z,82.20
2019-05-09T18:17:43.924Z,85.00
2019-05-09T18:20:14.888Z,85.70
2019-05-09T18:22:48.664Z,84.70
2019-05-09T18:25:20.831Z,83.30
2019-05-09T18:27:53.201Z,83.90
2019-05-09T18:30:24.965Z,86.20
2019-05-09T18:32:57.877Z,87.30
2019-05-09T18:35:30.008Z,88.20
2019-05-09T18:38:01.055Z,89.30
2019-05-09T18:40:31.931Z,89.80
2019-05-09T18:43:04.313Z,90.40
2019-05-09T18:45:37.391Z,90.30
2019-05-09T18:48:08.578Z,89.90
2019-05-09T18:50:39.322Z,90.60
2019-05-09T18:53:10.164Z,90.80
2019-05-09T18:55:43.300Z,90.50
2019-05-09T18:58:16.024Z,89.40
2019-05-09T19:00:47.746Z,90.20
2019-05-09T19:03:18.616Z,90.60
2019-05-09T19:05:49.246Z,90.60
2019-05-09T19:08:20.083Z,90.80
2019-05-09T19:10:52.767Z,90.40
2019-05-09T19:13:24.009Z,90.50
2019-05-09T19:15:58.598Z,90.90
2019-05-09T19:18:31.209Z,90.70
2019-05-09T19:21:07.318Z,90.90
2019-05-09T19:23:39.174Z,90.80
2019-05-09T19:26:11.495Z,91.20
2019-05-09T19:28:44.632Z,91.10
2019-05-09T19:31:15.417Z,90.70
2019-05-09T19:33:46.050Z,91.20
2019-05-09T19:36:16.889Z,90.60
2019-05-09T19:38:49.056Z,91.60
2019-05-09T19:41:26.439Z,91.90
2019-05-09T19:43:59.891Z,92.10
2019-05-09T19:46:33.404Z,92.00
2019-05-09T19:49:04.318Z,91.90
2019-05-09T19:51:35.239Z,91.90
2019-05-09T19:54:06.144Z,92.20
2019-05-09T19:56:37.491Z,92.30
2019-05-09T19:59:08.829Z,92.40
2019-05-09T20:01:41.109Z,92.60
2019-05-09T20:04:12.873Z,92.20
2019-05-09T20:06:43.497Z,92.20
2019-05-09T20:09:15.765Z,92.20
2019-05-09T20:11:47.942Z,91.90
2019-05-09T20:14:20.305Z,92.50
2019-05-09T20:16:55.606Z,92.60
2019-05-09T20:19:24.969Z,92.70
2019-05-09T20:21:55.712Z,92.70
2019-05-09T20:24:26.374Z,92.60
2019-05-09T20:26:57.035Z,92.60
2019-05-09T20:29:30.182Z,92.70
2019-05-09T20:32:00.075Z,92.70
2019-05-09T20:34:30.787Z,92.70
2019-05-09T20:37:01.406Z,92.80
2019-05-09T20:39:32.240Z,93.00
2019-05-09T20:42:03.178Z,92.80
2019-05-09T20:44:34.119Z,93.00
2019-05-09T20:47:04.848Z,93.10
2019-05-09T20:49:35.688Z,93.00
2019-05-09T20:52:06.211Z,93.00
2019-05-09T20:54:36.927Z,92.90
2019-05-09T20:57:07.987Z,93.50
2019-05-09T20:59:39.022Z,92.60
2019-05-09T21:02:10.519Z,93.00
2019-05-09T21:04:40.698Z,93.20
2019-05-09T21:07:11.530Z,93.20
2019-05-09T21:09:42.980Z,93.50
2019-05-09T21:12:13.713Z,93.60
2019-05-09T21:14:45.326Z,93.70
2019-05-09T21:17:15.873Z,93.50
2019-05-09T21:19:47.348Z,93.60
2019-05-09T21:22:18.793Z,93.80
2019-05-09T21:24:49.221Z,94.00
2019-05-09T21:27:19.849Z,93.90
2019-05-09T21:29:50.029Z,93.90
